Orbital elements of ALOS DEB
| Launched | 23 January 2006 |
| Flight ended | – |
| Launch site | Tanegashima Space Center, Japan |
| Owner | Japan |
| NORAD ID | 36571 |
| Date fetched |
Epoch osculation |
Inc. [°] |
Ecc. | RA asc node [hr] |
Arg Peri. [°] |
Mean anom [°] |
Mean motion [rev/day] |
Abs. mag |
| Date fetched |
Epoch osculation |
Inc. [°] |
Ecc. | RA asc node [hr] |
Arg Peri. [°] |
Mean anom [°] |
Mean motion [rev/day] |
Abs. mag |
| 2026 May 09 17:57 | 2026 May 05 09:39:08 | 98.0425 | 0.00016 | 6.5028 | 61.7798 | 298.3578 | 14.85056 | – |
| 2026 May 08 17:57 | 2026 May 05 09:39:08 | 98.0425 | 0.00016 | 6.5028 | 61.7798 | 298.3578 | 14.85056 | – |
| 2026 May 07 17:58 | 2026 May 05 09:39:08 | 98.0425 | 0.00016 | 6.5028 | 61.7798 | 298.3578 | 14.85056 | – |
| 2026 May 06 17:57 | 2026 May 05 09:39:08 | 98.0425 | 0.00016 | 6.5028 | 61.7798 | 298.3578 | 14.85056 | – |
| 2026 May 05 17:57 | 2026 May 05 09:39:08 | 98.0425 | 0.00016 | 6.5028 | 61.7798 | 298.3578 | 14.85056 | – |
| 2026 May 04 17:57 | 2026 Apr 30 11:36:11 | 98.0414 | 0.00018 | 6.1718 | 62.0114 | 298.3578 | 14.85056 | – |
| 2026 May 03 17:57 | 2026 Apr 30 11:36:11 | 98.0414 | 0.00018 | 6.1718 | 62.0114 | 298.3578 | 14.85056 | – |
| 2026 May 02 17:57 | 2026 Apr 30 11:36:11 | 98.0414 | 0.00018 | 6.1718 | 62.0114 | 298.3578 | 14.85056 | – |
| 2026 May 01 17:56 | 2026 Apr 30 11:36:11 | 98.0414 | 0.00018 | 6.1718 | 62.0114 | 298.3578 | 14.85056 | – |
| 2026 Apr 30 17:56 | 2026 Apr 30 11:36:11 | 98.0414 | 0.00018 | 6.1718 | 62.0114 | 298.3578 | 14.85056 | – |
| 2026 Apr 29 17:57 | 2026 Apr 24 08:26:25 | 98.0411 | 0.00021 | 5.7593 | 65.0816 | 298.3578 | 14.85056 | – |
| 2026 Apr 28 17:56 | 2026 Apr 24 08:26:25 | 98.0411 | 0.00021 | 5.7593 | 65.0816 | 298.3578 | 14.85056 | – |
| 2026 Apr 27 17:58 | 2026 Apr 24 08:26:25 | 98.0411 | 0.00021 | 5.7593 | 65.0816 | 298.3578 | 14.85056 | – |
| 2026 Apr 26 17:58 | 2026 Apr 24 08:26:25 | 98.0411 | 0.00021 | 5.7593 | 65.0816 | 298.3578 | 14.85056 | – |
| 2026 Apr 25 17:58 | 2026 Apr 24 08:26:25 | 98.0411 | 0.00021 | 5.7593 | 65.0816 | 298.3578 | 14.85056 | – |
| 2026 Apr 24 17:59 | 2026 Apr 24 08:26:25 | 98.0411 | 0.00021 | 5.7593 | 65.0816 | 298.3578 | 14.85056 | – |
| 2026 Apr 23 17:57 | 2026 Apr 18 03:39:20 | 98.0408 | 0.00023 | 5.3422 | 71.2254 | 298.3578 | 14.85056 | – |
| 2026 Apr 22 17:57 | 2026 Apr 18 03:39:20 | 98.0408 | 0.00023 | 5.3422 | 71.2254 | 298.3578 | 14.85056 | – |
| 2026 Apr 21 17:57 | 2026 Apr 18 03:39:20 | 98.0408 | 0.00023 | 5.3422 | 71.2254 | 298.3578 | 14.85056 | – |
| 2026 Apr 20 17:57 | 2026 Apr 18 03:39:20 | 98.0408 | 0.00023 | 5.3422 | 71.2254 | 298.3578 | 14.85056 | – |
| 2026 Apr 19 17:58 | 2026 Apr 18 03:39:20 | 98.0408 | 0.00023 | 5.3422 | 71.2254 | 298.3578 | 14.85056 | – |
| 2026 Apr 18 17:56 | 2026 Apr 13 03:58:42 | 98.0393 | 0.00024 | 5.0068 | 75.9368 | 298.3578 | 14.85056 | – |
| 2026 Apr 16 17:57 | 2026 Apr 13 03:58:42 | 98.0393 | 0.00024 | 5.0068 | 75.9368 | 298.3578 | 14.85056 | – |
| 2026 Apr 14 17:57 | 2026 Apr 13 03:58:42 | 98.0393 | 0.00024 | 5.0068 | 75.9368 | 298.3578 | 14.85056 | – |
| 2026 Apr 13 17:57 | 2026 Apr 13 03:58:42 | 98.0393 | 0.00024 | 5.0068 | 75.9368 | 298.3578 | 14.85056 | – |
| 2026 Apr 12 17:57 | 2026 Apr 08 09:09:03 | 98.0397 | 0.00024 | 4.6851 | 79.8754 | 298.3578 | 14.85056 | – |